Time;durP1;ratioP1;P1;durP2;ratioP2;P2;SDS_P1;SDS_P2;PMS_P1;PMS_P2;Temp;Humidity;BMP_temperature;BMP_pressure;BME280_temperature;BME280_humidity;BME280_pressure;Samples;Min_cycle;Max_cycle;Signal;HPM_P1;HPM_P2
2022/12/15 00:41:06;;;;;;;34.00;16.50;;;;;;;3.24;59.36;98751.06;4392888;32;20116;-93
2022/12/15 00:43:32;;;;;;;36.08;16.80;;;;;;;3.09;59.36;98759.06;4371424;32;20090;-93
2022/12/15 00:48:42;;;;;;;41.53;18.20;;;;;;;3.00;59.34;98756.63;4385936;32;20769;-94
2022/12/15 00:51:08;;;;;;;32.90;15.65;;;;;;;3.26;59.36;98746.72;4376810;32;20090;-94
2022/12/15 01:20:58;;;;;;;38.08;15.55;;;;;;;3.48;59.37;98756.59;4402845;32;20120;-94
2022/12/15 01:23:24;;;;;;;37.45;15.63;;;;;;;3.29;59.36;98746.66;4411511;32;20096;-92
2022/12/15 01:25:51;;;;;;;30.33;14.27;;;;;;;3.33;59.36;98750.91;4411403;32;20363;-92
2022/12/15 01:28:18;;;;;;;32.58;15.65;;;;;;;3.42;59.37;98746.44;4397330;32;20627;-95
2022/12/15 01:30:43;;;;;;;36.85;15.70;;;;;;;3.49;59.37;98743.72;4397479;32;20232;-95
2022/12/15 01:33:09;;;;;;;32.28;14.85;;;;;;;3.59;59.38;98742.66;4409239;32;20098;-95
2022/12/15 01:35:34;;;;;;;32.72;15.00;;;;;;;3.46;59.38;98748.06;4375439;32;20427;-94
2022/12/15 01:38:00;;;;;;;30.55;14.70;;;;;;;3.50;59.37;98739.41;4396070;32;20109;-93
2022/12/15 01:40:43;;;;;;;31.45;15.50;;;;;;;3.53;59.38;98741.94;4386051;32;20165;-93
2022/12/15 01:43:12;;;;;;;31.02;14.63;;;;;;;3.67;59.37;98738.22;4412950;32;20112;-93
2022/12/15 01:45:56;;;;;;;31.08;15.48;;;;;;;3.57;59.38;98741.00;4386039;32;20494;-94
2022/12/15 01:48:28;;;;;;;28.38;13.35;;;;;;;3.56;59.37;98739.31;4423566;32;20099;-93
2022/12/15 01:51:00;;;;;;;32.38;14.52;;;;;;;3.59;59.37;98739.25;4395701;32;20171;-93
2022/12/15 01:53:26;;;;;;;29.87;14.60;;;;;;;3.67;59.38;98742.50;4388018;32;20131;-94
2022/12/15 01:55:51;;;;;;;29.05;13.95;;;;;;;3.65;59.38;98749.41;4411096;32;20098;-94
2022/12/15 01:58:20;;;;;;;31.05;14.90;;;;;;;3.68;59.37;98744.19;4385578;32;20201;-94
2022/12/15 02:00:45;;;;;;;29.60;14.93;;;;;;;3.55;59.38;98745.31;4411772;32;20491;-95
2022/12/15 02:03:14;;;;;;;28.58;13.98;;;;;;;3.75;59.38;98745.75;4372933;32;20093;-93
2022/12/15 02:05:39;;;;;;;29.73;14.43;;;;;;;3.73;59.38;98756.97;4403945;32;20204;-92
2022/12/15 02:08:05;;;;;;;28.05;14.77;;;;;;;3.77;59.39;98744.00;4389046;32;20130;-94
2022/12/15 02:11:11;;;;;;;36.22;15.45;;;;;;;3.66;59.38;98738.25;4399875;32;20128;-93
2022/12/15 02:14:14;;;;;;;28.87;13.75;;;;;;;3.71;59.38;98739.00;4415193;32;20132;-93
2022/12/15 02:17:04;;;;;;;32.00;15.13;;;;;;;3.73;59.38;98738.97;4403374;32;20459;-92
2022/12/15 02:19:35;;;;;;;30.95;14.93;;;;;;;3.68;59.37;98759.66;4393833;32;20114;-92
2022/12/15 02:22:32;;;;;;;34.50;15.07;;;;;;;3.70;59.38;98758.72;4404054;32;20188;-92
2022/12/15 02:25:34;;;;;;;31.12;14.57;;;;;;;3.71;59.38;98767.28;4404389;32;20093;-93
2022/12/15 02:28:05;;;;;;;29.25;14.73;;;;;;;3.68;59.39;98765.63;4412191;32;20062;-92
2022/12/15 02:34:24;;;;;;;32.58;14.25;;;;;;;3.70;59.38;98751.00;4397072;32;20865;-93
2022/12/15 02:36:56;;;;;;;29.48;14.20;;;;;;;3.51;59.37;98753.97;4388533;32;20083;-93
2022/12/15 02:39:24;;;;;;;31.83;15.23;;;;;;;3.63;59.38;98749.44;4396377;32;20184;-91
2022/12/15 02:41:51;;;;;;;35.05;15.52;;;;;;;3.64;59.38;98743.41;4407407;32;20116;-91
2022/12/15 02:44:36;;;;;;;36.05;16.05;;;;;;;3.49;59.37;98746.28;4424884;32;20512;-92
2022/12/15 02:47:05;;;;;;;34.03;14.70;;;;;;;3.64;59.38;98756.28;4393259;32;20116;-92
2022/12/15 02:50:07;;;;;;;32.67;15.15;;;;;;;3.58;59.37;98756.41;4412128;32;20147;-91
2022/12/15 02:53:10;;;;;;;30.17;14.85;;;;;;;3.55;59.37;98765.91;4410435;32;20106;-96
2022/12/15 02:56:02;;;;;;;33.50;15.50;;;;;;;3.66;59.38;98759.69;4423516;32;20083;-95
2022/12/15 02:58:50;;;;;;;30.48;14.48;;;;;;;3.79;59.39;98754.28;4392210;32;20125;-94
2022/12/15 03:01:48;;;;;;;32.72;15.40;;;;;;;3.69;59.38;98756.19;4412300;32;20155;-94
2022/12/15 03:04:14;;;;;;;30.30;14.77;;;;;;;3.67;59.38;98753.66;4410190;32;20097;-96
2022/12/15 03:06:42;;;;;;;30.55;14.65;;;;;;;3.73;59.39;98759.53;4412573;32;20177;-95
2022/12/15 03:09:11;;;;;;;40.12;16.25;;;;;;;3.65;59.38;98754.56;4419770;32;20116;-94
2022/12/15 03:11:36;;;;;;;34.78;16.20;;;;;;;3.59;59.38;98762.41;4372217;32;20090;-95
2022/12/15 03:14:05;;;;;;;30.30;15.13;;;;;;;3.58;59.37;98763.28;4382457;32;20118;-95
2022/12/15 03:16:30;;;;;;;34.47;15.77;;;;;;;3.84;59.40;98767.91;4385453;32;20160;-95
2022/12/15 03:18:56;;;;;;;32.28;15.55;;;;;;;3.89;59.39;98760.94;4372761;32;20143;-95
2022/12/15 03:21:21;;;;;;;34.90;16.37;;;;;;;3.80;59.38;98759.41;4396694;32;20165;-95
2022/12/15 03:23:46;;;;;;;35.10;16.73;;;;;;;3.99;59.41;98762.41;4400629;32;20370;-96
2022/12/15 03:26:12;;;;;;;36.30;16.15;;;;;;;4.05;59.41;98762.31;4400528;32;20159;-96
2022/12/15 03:28:41;;;;;;;38.42;15.60;;;;;;;3.77;59.39;98764.59;4400916;32;20093;-94
2022/12/15 03:31:06;;;;;;;36.23;16.60;;;;;;;3.67;59.38;98768.25;4401085;32;20082;-95
2022/12/15 03:33:32;;;;;;;34.33;16.50;;;;;;;3.43;59.36;98776.44;4400398;32;20119;-95
2022/12/15 03:35:58;;;;;;;32.40;16.48;;;;;;;3.32;59.36;98776.66;4399978;32;20152;-94
2022/12/15 03:38:30;;;;;;;32.58;16.00;;;;;;;3.27;59.36;98779.28;4400374;32;20082;-95
2022/12/15 03:40:55;;;;;;;32.30;15.75;;;;;;;3.14;59.35;98772.69;4412894;32;20119;-93
2022/12/15 03:43:24;;;;;;;33.97;16.73;;;;;;;3.19;59.36;98775.16;4400134;32;20129;-92
2022/12/15 03:45:49;;;;;;;33.33;15.45;;;;;;;3.24;59.35;98773.34;4399916;32;20806;-92
2022/12/15 03:48:15;;;;;;;38.45;16.05;;;;;;;3.18;59.36;98773.47;4399909;32;20141;-92
2022/12/15 03:50:40;;;;;;;31.40;15.80;;;;;;;3.06;59.34;98775.38;4400119;32;20094;-93
2022/12/15 03:53:09;;;;;;;33.65;15.77;;;;;;;3.07;59.35;98792.47;4400146;32;20492;-92
2022/12/15 03:55:34;;;;;;;33.67;16.85;;;;;;;3.00;59.34;98795.19;4399564;32;20482;-93
2022/12/15 03:58:00;;;;;;;34.15;15.32;;;;;;;2.96;59.34;98791.00;4399547;32;20074;-92
2022/12/15 04:00:25;;;;;;;33.28;14.63;;;;;;;3.08;59.34;98783.94;4412614;32;20332;-93
2022/12/15 04:02:51;;;;;;;29.52;16.02;;;;;;;2.94;59.34;98790.16;4399875;32;20109;-94
2022/12/15 04:05:18;;;;;;;31.23;16.00;;;;;;;2.74;59.33;98788.75;4399917;32;20128;-93
2022/12/15 04:07:44;;;;;;;36.67;16.83;;;;;;;2.88;59.34;98796.25;4412457;32;20093;-94
2022/12/15 04:10:10;;;;;;;33.40;15.35;;;;;;;2.89;59.34;98795.38;4399514;32;20139;-92
2022/12/15 04:12:38;;;;;;;32.72;15.02;;;;;;;2.81;59.34;98804.94;4399841;32;20130;-93
2022/12/15 04:15:07;;;;;;;28.92;14.10;;;;;;;2.97;59.34;98805.53;4400226;32;20118;-93
2022/12/15 04:17:33;;;;;;;29.40;14.32;;;;;;;2.97;59.35;98808.09;4412929;32;20093;-92
2022/12/15 04:20:10;;;;;;;33.40;14.85;;;;;;;2.96;59.35;98819.25;4399723;32;20158;-93
2022/12/15 04:22:43;;;;;;;29.37;14.63;;;;;;;2.99;59.34;98819.22;4395492;32;20110;-92
2022/12/15 05:33:38;;;;;;;42.40;18.67;;;;;;;2.95;59.35;98917.81;4408791;32;20488;-87
2022/12/15 05:36:03;;;;;;;44.83;19.25;;;;;;;2.99;59.34;98915.16;4397381;32;20138;-87
2022/12/15 05:38:29;;;;;;;48.13;19.67;;;;;;;3.15;59.35;98918.37;4397346;32;20126;-89
2022/12/15 05:40:58;;;;;;;42.17;18.55;;;;;;;3.08;59.35;98917.63;4397637;32;20155;-87
2022/12/15 05:43:23;;;;;;;40.67;19.08;;;;;;;2.95;59.35;98920.38;4385119;32;20105;-87
2022/12/15 05:45:49;;;;;;;45.15;20.33;;;;;;;3.04;59.34;98926.22;4409784;32;20089;-86
2022/12/15 05:48:14;;;;;;;45.12;19.85;;;;;;;3.12;59.35;98933.00;4410089;32;20460;-86
2022/12/15 05:50:39;;;;;;;47.55;20.65;;;;;;;3.20;59.36;98937.12;4410372;32;20150;-86
2022/12/15 05:53:05;;;;;;;41.97;19.58;;;;;;;2.98;59.34;98957.19;4397232;32;27144;-87
2022/12/15 05:55:30;;;;;;;43.55;19.40;;;;;;;2.99;59.34;98956.31;4410354;32;20096;-86
2022/12/15 05:57:56;;;;;;;53.90;21.80;;;;;;;2.94;59.33;98959.81;4410019;32;20106;-86
2022/12/15 06:00:21;;;;;;;50.72;22.23;;;;;;;2.95;59.35;98964.09;4397515;32;20102;-87
2022/12/15 06:02:47;;;;;;;46.15;20.85;;;;;;;2.92;59.34;98969.28;4397343;32;20137;-87
2022/12/15 06:05:12;;;;;;;44.15;20.05;;;;;;;2.81;59.34;98973.69;4397475;32;20143;-86
2022/12/15 06:07:37;;;;;;;43.90;20.40;;;;;;;3.07;59.35;98982.75;4397569;32;20168;-86
2022/12/15 06:10:03;;;;;;;41.50;19.87;;;;;;;3.17;59.36;98992.91;4409469;32;22949;-85
2022/12/15 06:12:29;;;;;;;45.40;19.48;;;;;;;3.05;59.34;99004.22;4372554;32;20065;-86
2022/12/15 06:14:54;;;;;;;46.65;20.33;;;;;;;2.90;59.34;99004.44;4410003;32;20132;-86
2022/12/15 06:17:20;;;;;;;38.47;19.58;;;;;;;2.88;59.34;99003.59;4397289;32;20162;-87
2022/12/15 06:19:45;;;;;;;51.50;23.15;;;;;;;3.08;59.35;98999.91;4397091;32;23714;-87
2022/12/15 06:22:11;;;;;;;47.72;21.17;;;;;;;3.16;59.35;98998.94;4397338;32;20406;-86
2022/12/15 06:24:36;;;;;;;45.47;20.70;;;;;;;3.31;59.36;98986.72;4409834;32;20160;-87
2022/12/15 06:27:02;;;;;;;48.25;20.48;;;;;;;3.27;59.36;99002.19;4410183;32;20173;-87
2022/12/15 06:29:27;;;;;;;44.15;19.00;;;;;;;3.29;59.36;99009.00;4410231;32;20150;-87
2022/12/15 06:31:53;;;;;;;39.70;19.23;;;;;;;3.36;59.36;99009.78;4397525;32;20161;-87
2022/12/15 06:34:18;;;;;;;44.60;19.58;;;;;;;3.21;59.36;99010.00;4409783;32;20138;-87
2022/12/15 06:36:44;;;;;;;47.67;20.52;;;;;;;3.20;59.36;99005.72;4397502;32;20168;-87
2022/12/15 06:39:11;;;;;;;40.65;18.58;;;;;;;3.19;59.36;99001.47;4397810;32;20148;-86
2022/12/15 06:41:36;;;;;;;44.17;19.17;;;;;;;3.33;59.36;99013.25;4372585;32;20101;-87
2022/12/15 06:44:02;;;;;;;46.10;19.52;;;;;;;3.22;59.36;99007.41;4397446;32;20137;-87
2022/12/15 06:46:28;;;;;;;44.47;20.17;;;;;;;3.29;59.36;99011.56;4396669;32;20158;-87
2022/12/15 06:48:53;;;;;;;48.95;21.30;;;;;;;3.33;59.37;99014.97;4372646;32;20109;-87
2022/12/15 06:51:19;;;;;;;54.20;21.80;;;;;;;3.45;59.37;99019.06;4397811;32;20167;-87
2022/12/15 06:53:47;;;;;;;53.05;22.55;;;;;;;3.43;59.37;99028.53;4397497;32;20474;-87
2022/12/15 06:56:17;;;;;;;47.78;21.60;;;;;;;3.41;59.37;99033.72;4396817;32;20171;-87
2022/12/15 06:58:43;;;;;;;;;;;;;;;3.25;59.36;99053.66;4373019;32;20110;-87
2022/12/15 07:01:08;;;;;;;47.10;20.10;;;;;;;3.33;59.37;99043.28;4409921;32;20039;-87
2022/12/15 07:03:33;;;;;;;48.75;20.62;;;;;;;3.44;59.36;99045.69;4397551;32;20093;-87
2022/12/15 07:06:07;;;;;;;43.65;20.75;;;;;;;3.48;59.37;99065.34;4397679;32;20166;-88
2022/12/15 07:08:32;;;;;;;45.60;21.25;;;;;;;3.65;59.38;99074.53;4385143;32;20412;-87
2022/12/15 07:10:58;;;;;;;50.65;21.23;;;;;;;3.82;59.38;99082.00;4397315;32;20155;-87
2022/12/15 07:13:23;;;;;;;55.17;24.15;;;;;;;3.89;59.39;99083.59;4397142;32;20109;-87
2022/12/15 07:15:48;;;;;;;53.10;24.05;;;;;;;4.00;59.40;99091.12;4397279;32;20102;-86
2022/12/15 07:18:14;;;;;;;46.95;22.15;;;;;;;3.97;59.40;99083.47;4397325;32;20426;-87
2022/12/15 07:20:40;;;;;;;51.78;22.37;;;;;;;3.96;59.40;99079.19;4396953;32;20112;-87
2022/12/15 07:23:08;;;;;;;51.60;22.60;;;;;;;3.81;59.38;99085.44;4396305;32;21058;-87
2022/12/15 07:25:37;;;;;;;56.35;22.10;;;;;;;4.10;59.40;99078.97;4396959;32;20071;-86
2022/12/15 07:28:03;;;;;;;52.63;22.73;;;;;;;4.13;59.41;99082.34;4371907;32;20475;-86
2022/12/15 07:30:28;;;;;;;53.05;22.77;;;;;;;3.93;59.40;99076.66;4396623;32;20102;-87
2022/12/15 07:32:53;;;;;;;54.08;22.70;;;;;;;3.98;59.40;99078.28;4396834;32;20110;-87
2022/12/15 07:35:19;;;;;;;57.13;23.20;;;;;;;4.18;59.41;99092.56;4396513;32;20106;-87
2022/12/15 07:37:44;;;;;;;51.47;22.85;;;;;;;4.16;59.41;99102.03;4396382;32;20161;-87
2022/12/15 07:40:10;;;;;;;46.35;20.80;;;;;;;4.22;59.41;99101.94;4396663;32;20142;-87
2022/12/15 07:42:36;;;;;;;51.42;22.05;;;;;;;4.20;59.42;99098.53;4371528;32;20119;-87
2022/12/15 07:45:02;;;;;;;43.97;20.45;;;;;;;4.13;59.41;99105.53;4396453;32;20150;-87
2022/12/15 07:47:27;;;;;;;51.67;22.10;;;;;;;4.12;59.42;99108.13;4371711;32;20106;-87
2022/12/15 07:49:53;;;;;;;63.42;26.60;;;;;;;4.37;59.43;99086.22;4396283;32;20130;-86
2022/12/15 07:52:19;;;;;;;55.95;24.42;;;;;;;4.41;59.42;99095.59;4396407;32;20158;-87
2022/12/15 07:54:44;;;;;;;57.40;25.90;;;;;;;4.57;59.43;99102.19;4396601;32;20136;-87
2022/12/15 07:57:09;;;;;;;66.45;25.73;;;;;;;4.30;59.42;99113.81;4395664;32;20135;-87
2022/12/15 07:59:35;;;;;;;51.67;23.17;;;;;;;4.35;59.41;99102.59;4409023;32;20150;-87
2022/12/15 08:02:02;;;;;;;45.10;22.65;;;;;;;4.35;59.42;99120.62;4408853;32;20113;-87
2022/12/15 08:04:28;;;;;;;54.45;22.13;;;;;;;4.36;59.42;99114.59;4396481;32;20149;-87
2022/12/15 08:06:54;;;;;;;47.00;21.87;;;;;;;4.59;59.43;99110.75;4396404;32;20451;-87
2022/12/15 08:09:19;;;;;;;48.08;22.45;;;;;;;4.50;59.42;99122.94;4396034;32;20137;-87
2022/12/15 08:11:45;;;;;;;48.95;21.77;;;;;;;4.69;59.44;99118.28;4396482;32;20090;-87
2022/12/15 08:14:10;;;;;;;56.80;23.62;;;;;;;4.56;59.43;99131.41;4408643;32;20141;-87
2022/12/15 08:16:36;;;;;;;57.08;23.70;;;;;;;4.67;59.44;99125.19;4395907;32;20128;-87
2022/12/15 08:19:02;;;;;;;48.87;22.83;;;;;;;4.76;59.45;99140.53;4408736;32;20086;-87
2022/12/15 08:21:30;;;;;;;50.47;23.00;;;;;;;4.55;59.43;99146.91;4371163;32;20132;-86
2022/12/15 08:23:55;;;;;;;42.45;22.77;;;;;;;4.78;59.44;99146.50;4396188;32;20110;-87
2022/12/15 08:26:20;;;;;;;56.30;21.87;;;;;;;4.87;59.45;99146.31;4395752;32;20145;-87
2022/12/15 08:28:46;;;;;;;51.00;21.48;;;;;;;4.83;59.45;99137.78;4408731;32;20160;-87
2022/12/15 08:31:16;;;;;;;49.67;21.95;;;;;;;4.88;59.45;99148.88;4408883;32;20126;-87
2022/12/15 08:33:42;;;;;;;46.55;22.48;;;;;;;5.03;59.46;99139.16;4370871;32;20106;-87
2022/12/15 08:36:09;;;;;;;47.05;22.23;;;;;;;4.90;59.45;99136.78;4371047;32;20866;-87
2022/12/15 08:38:35;;;;;;;41.97;20.45;;;;;;;4.96;59.46;99138.41;4383623;32;20082;-87
2022/12/15 08:41:12;;;;;;;39.08;19.60;;;;;;;5.03;59.46;99149.47;4395873;32;20066;-87
2022/12/15 08:43:38;;;;;;;48.75;21.48;;;;;;;5.04;59.46;99149.44;4396702;32;20126;-87
2022/12/15 08:46:04;;;;;;;40.55;21.02;;;;;;;4.99;59.46;99146.09;4408504;32;20157;-86
2022/12/15 08:48:30;;;;;;;44.65;22.10;;;;;;;4.83;59.44;99162.72;4370948;32;20144;-87
2022/12/15 08:50:56;;;;;;;44.28;21.67;;;;;;;4.97;59.46;99163.34;4395824;32;20110;-87
2022/12/15 08:53:21;;;;;;;43.00;20.75;;;;;;;5.12;59.46;99167.34;4371070;32;20208;-87
2022/12/15 08:55:47;;;;;;;38.05;18.87;;;;;;;5.11;59.47;99176.81;4395679;32;20105;-87
2022/12/15 08:58:12;;;;;;;42.80;20.88;;;;;;;5.22;59.46;99177.47;4395332;32;20154;-87
2022/12/15 09:00:38;;;;;;;48.83;21.08;;;;;;;5.20;59.47;99176.66;4395502;32;20133;-87
2022/12/15 09:03:03;;;;;;;56.70;20.85;;;;;;;5.13;59.46;99180.19;4395691;32;20122;-87
2022/12/15 09:05:28;;;;;;;40.80;20.62;;;;;;;5.28;59.47;99180.78;4408322;32;20106;-88
2022/12/15 09:07:55;;;;;;;45.00;20.58;;;;;;;5.36;59.47;99176.31;4395360;32;20098;-87
2022/12/15 09:10:21;;;;;;;43.75;20.85;;;;;;;5.51;59.48;99163.13;4369644;32;20098;-87
2022/12/15 09:12:46;;;;;;;48.28;22.73;;;;;;;5.52;59.49;99167.41;4395769;32;20153;-87
2022/12/15 09:15:11;;;;;;;43.58;21.55;;;;;;;5.69;59.50;99160.16;4395354;32;20126;-87
2022/12/15 09:17:37;;;;;;;47.85;22.17;;;;;;;5.48;59.49;99164.03;4395355;32;20495;-87
2022/12/15 09:20:02;;;;;;;42.00;21.25;;;;;;;5.33;59.48;99159.19;4395375;32;20108;-87
2022/12/15 09:22:28;;;;;;;40.75;20.62;;;;;;;5.41;59.48;99157.28;4395656;32;20114;-87
2022/12/15 09:24:53;;;;;;;43.58;21.92;;;;;;;5.37;59.47;99158.22;4395625;32;20132;-87
2022/12/15 09:27:19;;;;;;;47.88;22.98;;;;;;;5.44;59.48;99149.50;4395133;32;20510;-88
2022/12/15 09:29:45;;;;;;;44.22;21.70;;;;;;;5.44;59.48;99152.09;4395400;32;20099;-87
2022/12/15 09:32:10;;;;;;;50.88;22.52;;;;;;;5.52;59.49;99160.50;4395452;32;20106;-87
2022/12/15 09:34:36;;;;;;;43.50;21.40;;;;;;;5.59;59.49;99155.19;4395198;32;20106;-86
2022/12/15 09:37:02;;;;;;;45.33;21.08;;;;;;;5.71;59.50;99142.03;4370210;32;20116;-87
2022/12/15 09:39:27;;;;;;;39.80;19.77;;;;;;;5.66;59.49;99149.84;4395330;32;20443;-87
2022/12/15 09:41:54;;;;;;;47.15;21.92;;;;;;;5.78;59.50;99151.34;4395190;32;20161;-87
2022/12/15 09:44:20;;;;;;;47.38;20.75;;;;;;;5.66;59.49;99157.59;4370451;32;20113;-88
2022/12/15 09:47:14;;;;;;;48.35;20.50;;;;;;;5.64;59.49;99164.53;4370471;32;20117;-87
2022/12/15 09:49:53;;;;;;;38.53;19.58;;;;;;;5.63;59.49;99168.00;4371098;32;20112;-87
2022/12/15 09:52:40;;;;;;;46.00;21.42;;;;;;;5.74;59.49;99168.63;4407891;32;20133;-88
2022/12/15 09:55:25;;;;;;;42.30;20.85;;;;;;;5.78;59.51;99172.84;4371420;32;20113;-88
2022/12/15 09:58:00;;;;;;;49.53;21.17;;;;;;;5.79;59.50;99173.69;4370993;32;20411;-88
2022/12/15 10:00:54;;;;;;;43.08;21.05;;;;;;;5.83;59.50;99180.50;4382592;32;20081;-88
2022/12/15 10:03:29;;;;;;;46.80;22.02;;;;;;;5.96;59.51;99186.28;4382867;32;20098;-87
2022/12/15 10:06:30;;;;;;;48.17;22.02;;;;;;;5.80;59.50;99188.31;4420479;32;20101;-87
2022/12/15 10:09:12;;;;;;;42.65;21.27;;;;;;;5.90;59.50;99178.66;4376712;32;20116;-87
2022/12/15 10:11:47;;;;;;;42.47;22.15;;;;;;;5.78;59.50;99184.91;4393657;32;20090;-87
2022/12/15 10:14:19;;;;;;;51.80;22.60;;;;;;;5.75;59.49;99182.41;4392561;32;20128;-88
2022/12/15 10:17:03;;;;;;;43.85;21.48;;;;;;;5.79;59.50;99174.53;4404984;32;20222;-88
2022/12/15 10:19:40;;;;;;;48.28;21.95;;;;;;;5.78;59.51;99187.50;4393643;32;20091;-88
2022/12/15 10:22:10;;;;;;;46.13;21.00;;;;;;;5.70;59.50;99186.81;4381231;32;20090;-88
2022/12/15 10:24:36;;;;;;;;;;;;;;;5.90;59.52;99179.50;4382329;32;20511;-88
2022/12/15 10:27:17;;;;;;;45.73;22.90;;;;;;;5.78;59.51;99166.84;4394740;32;20037;-88
2022/12/15 10:29:46;;;;;;;49.92;21.80;;;;;;;5.92;59.51;99159.69;4393425;32;20172;-88
2022/12/15 10:32:29;;;;;;;47.97;22.70;;;;;;;5.89;59.50;99156.25;4394686;32;20145;-87
2022/12/15 10:34:55;;;;;;;55.20;23.67;;;;;;;5.92;59.51;99151.06;4394485;32;20115;-88
2022/12/15 10:37:20;;;;;;;56.83;23.90;;;;;;;5.72;59.49;99149.75;4382128;32;20173;-87
2022/12/15 10:39:47;;;;;;;57.85;22.62;;;;;;;5.74;59.49;99150.56;4381908;32;20149;-87
2022/12/15 10:42:25;;;;;;;54.97;24.17;;;;;;;5.84;59.51;99157.22;4394642;32;20146;-88
2022/12/15 10:44:52;;;;;;;48.10;23.80;;;;;;;5.80;59.50;99171.09;4394409;32;20094;-88
2022/12/15 10:47:22;;;;;;;46.15;22.80;;;;;;;5.91;59.51;99177.75;4394796;32;20432;-87
2022/12/15 10:49:47;;;;;;;53.87;23.48;;;;;;;5.96;59.51;99165.63;4394656;32;20074;-88
2022/12/15 10:52:31;;;;;;;50.35;24.10;;;;;;;6.11;59.52;99160.06;4382011;32;20109;-88
2022/12/15 10:54:56;;;;;;;47.17;23.17;;;;;;;6.20;59.53;99152.12;4381531;32;20170;-87
2022/12/15 10:57:24;;;;;;;56.05;24.52;;;;;;;6.16;59.52;99150.50;4381877;32;20130;-88
2022/12/15 10:59:51;;;;;;;55.83;25.10;;;;;;;6.23;59.53;99149.47;4394167;32;20091;-88
2022/12/15 11:02:19;;;;;;;60.65;25.23;;;;;;;6.21;59.53;99158.16;4394634;32;20536;-88
2022/12/15 11:05:02;;;;;;;52.45;23.75;;;;;;;6.26;59.52;99159.72;4407030;32;20074;-88
2022/12/15 11:07:39;;;;;;;47.83;22.75;;;;;;;6.27;59.52;99158.84;4381831;32;20739;-88
2022/12/15 11:13:16;;;;;;;61.90;30.00;;;;;;;6.36;59.53;99174.12;4420509;32;20136;-88
2022/12/15 11:15:44;;;;;;;55.80;25.60;;;;;;;6.37;59.53;99169.78;4396682;32;20180;-87
2022/12/15 11:18:15;;;;;;;56.25;25.70;;;;;;;6.24;59.52;99169.25;4396589;32;20267;-88
2022/12/15 11:20:44;;;;;;;56.33;25.20;;;;;;;6.04;59.51;99177.47;4421914;32;20094;-88
2022/12/15 11:23:28;;;;;;;56.70;24.95;;;;;;;6.00;59.51;99172.41;4409485;32;20172;-86
2022/12/15 11:26:02;;;;;;;58.92;25.95;;;;;;;6.18;59.52;99161.66;4422455;32;20113;-88
2022/12/15 11:28:44;;;;;;;57.70;25.35;;;;;;;6.34;59.53;99164.69;4396400;32;20078;-88
2022/12/15 11:31:21;;;;;;;53.00;25.37;;;;;;;6.42;59.54;99161.06;4408934;32;20467;-87
2022/12/15 11:33:46;;;;;;;56.72;24.95;;;;;;;6.42;59.53;99162.81;4409054;32;20522;-88
2022/12/15 11:36:20;;;;;;;55.65;25.00;;;;;;;6.48;59.53;99165.22;4396062;32;25972;-87
2022/12/15 11:38:49;;;;;;;57.08;24.77;;;;;;;6.55;59.54;99160.75;4409412;32;20434;-87
2022/12/15 11:41:38;;;;;;;56.13;25.60;;;;;;;6.46;59.54;99162.69;4396460;32;20129;-87
2022/12/15 11:44:11;;;;;;;58.70;26.03;;;;;;;6.63;59.54;99166.59;4409104;32;20245;-87
2022/12/15 11:46:50;;;;;;;60.63;25.25;;;;;;;6.54;59.54;99171.97;4409335;32;20263;-87
2022/12/15 11:49:37;;;;;;;60.12;25.25;;;;;;;6.70;59.55;99173.28;4396110;32;20113;-88
2022/12/15 11:52:23;;;;;;;61.20;26.48;;;;;;;6.70;59.55;99183.63;4421756;32;20475;-87
2022/12/15 11:55:02;;;;;;;54.20;25.48;;;;;;;6.74;59.56;99185.25;4395519;32;20098;-87
2022/12/15 11:58:05;;;;;;;53.03;25.00;;;;;;;6.77;59.55;99188.59;4421093;32;20114;-88
2022/12/15 12:00:34;;;;;;;59.05;27.20;;;;;;;6.86;59.56;99178.91;4410235;32;20800;-87
2022/12/15 12:03:27;;;;;;;61.70;25.85;;;;;;;7.01;59.56;99191.44;4395950;32;20159;-87
2022/12/15 12:06:01;;;;;;;56.37;25.08;;;;;;;6.92;59.56;99197.72;4421942;32;20109;-88
2022/12/15 12:08:36;;;;;;;60.33;27.05;;;;;;;6.78;59.55;99186.88;4410153;32;20173;-87
2022/12/15 12:11:18;;;;;;;56.15;25.00;;;;;;;6.87;59.56;99178.91;4421636;32;20470;-88
2022/12/15 12:14:16;;;;;;;50.03;23.45;;;;;;;6.90;59.57;99176.22;4408945;32;20120;-88
2022/12/15 12:17:02;;;;;;;53.38;23.58;;;;;;;6.89;59.56;99169.34;4393828;32;20058;-87
2022/12/15 12:19:44;;;;;;;60.47;24.00;;;;;;;6.96;59.57;99168.28;4419808;32;20086;-88
2022/12/15 12:22:34;;;;;;;55.28;24.48;;;;;;;6.95;59.57;99169.19;4395147;32;20105;-88
2022/12/15 12:25:11;;;;;;;60.72;25.25;;;;;;;6.71;59.55;99175.00;4396075;32;20129;-87
2022/12/15 12:28:01;;;;;;;64.47;27.37;;;;;;;6.59;59.55;99181.31;4395226;32;20166;-87
2022/12/15 12:30:34;;;;;;;60.30;25.48;;;;;;;6.63;59.54;99161.41;4394097;32;20107;-87
2022/12/15 12:33:18;;;;;;;65.95;27.02;;;;;;;6.81;59.56;99152.31;4396081;32;20114;-87
2022/12/15 12:35:57;;;;;;;58.85;25.65;;;;;;;6.87;59.56;99160.78;4414347;32;234596;-87
2022/12/15 12:38:29;;;;;;;53.27;24.67;;;;;;;6.68;59.55;99167.31;4395660;32;20102;-88
2022/12/15 12:41:35;;;;;;;59.05;26.60;;;;;;;6.70;59.55;99160.38;4395548;32;20094;-88
2022/12/15 12:44:07;;;;;;;61.60;26.55;;;;;;;6.54;59.54;99156.47;4420308;32;20074;-88
2022/12/15 12:46:34;;;;;;;67.30;27.60;;;;;;;6.43;59.54;99159.31;4395711;32;20473;-88
2022/12/15 12:49:12;;;;;;;57.03;25.33;;;;;;;6.45;59.54;99163.56;4395508;32;20086;-88
2022/12/15 12:51:40;;;;;;;62.55;27.33;;;;;;;6.66;59.55;99166.50;4395687;32;20170;-89
2022/12/15 12:54:32;;;;;;;63.33;26.37;;;;;;;6.78;59.55;99161.84;4395922;32;20114;-88
2022/12/15 12:56:58;;;;;;;63.85;27.25;;;;;;;6.73;59.56;99174.06;4407783;32;20462;-88
2022/12/15 12:59:26;;;;;;;72.12;27.85;;;;;;;6.71;59.55;99175.84;4395549;32;20112;-88
2022/12/15 13:01:52;;;;;;;59.38;26.15;;;;;;;6.55;59.54;99168.50;4421209;32;20097;-88
2022/12/15 13:04:32;;;;;;;64.78;29.23;;;;;;;6.58;59.55;99177.03;4395778;32;20123;-88
2022/12/15 13:06:59;;;;;;;61.85;26.37;;;;;;;6.54;59.54;99180.56;4421171;32;20113;-88
2022/12/15 13:09:39;;;;;;;60.88;26.17;;;;;;;6.62;59.55;99185.56;4408133;32;20111;-89
2022/12/15 13:12:17;;;;;;;67.10;28.98;;;;;;;6.60;59.55;99193.34;4383387;32;20105;-88
2022/12/15 13:14:43;;;;;;;65.97;28.45;;;;;;;6.56;59.54;99194.31;4371954;32;20079;-88
2022/12/15 13:17:18;;;;;;;78.03;39.13;;;;;;;6.59;59.55;99193.37;4395876;32;20173;-88
2022/12/15 13:19:55;;;;;;;112.78;67.20;;;;;;;6.55;59.54;99192.63;4371263;32;20086;-88
2022/12/15 13:22:32;;;;;;;119.82;76.60;;;;;;;6.60;59.55;99190.75;4421043;32;20184;-88
2022/12/15 13:24:57;;;;;;;67.87;33.58;;;;;;;6.55;59.55;99192.63;4371812;32;20078;-88
2022/12/15 13:27:22;;;;;;;61.85;27.20;;;;;;;6.52;59.54;99184.09;4395635;32;20122;-88
2022/12/15 13:30:02;;;;;;;69.28;29.83;;;;;;;6.58;59.55;99181.34;4395738;32;20189;-88
2022/12/15 13:32:28;;;;;;;;;;;;;;;6.34;59.53;99186.22;4371507;32;20103;-88
2022/12/15 13:34:53;;;;;;;60.90;26.40;;;;;;;6.38;59.53;99199.91;4421160;32;20338;-88
2022/12/15 13:37:55;;;;;;;63.25;28.35;;;;;;;6.30;59.53;99200.13;4395541;32;20179;-88
2022/12/15 13:40:33;;;;;;;67.28;28.17;;;;;;;6.36;59.54;99209.44;4347069;33;20831;-89
2022/12/15 13:43:05;;;;;;;64.50;28.20;;;;;;;6.37;59.53;99206.81;4400929;32;20133;-88
2022/12/15 13:45:36;;;;;;;67.90;27.75;;;;;;;6.18;59.52;99208.16;4420722;32;20129;-88
2022/12/15 13:48:19;;;;;;;70.43;28.50;;;;;;;6.04;59.51;99198.13;4420648;32;20094;-88
2022/12/15 13:51:02;;;;;;;62.97;28.67;;;;;;;6.11;59.52;99196.25;4408309;32;20161;-88
2022/12/15 13:53:27;;;;;;;68.20;29.17;;;;;;;6.13;59.52;99190.16;4397354;32;20121;-89
2022/12/15 13:56:03;;;;;;;65.95;29.77;;;;;;;6.00;59.51;99196.50;4396597;32;20110;-88
2022/12/15 13:58:32;;;;;;;66.97;29.42;;;;;;;6.06;59.52;99198.09;4372422;32;20125;-88
2022/12/15 14:00:58;;;;;;;73.65;30.10;;;;;;;6.10;59.52;99204.88;4372602;32;20150;-88
2022/12/15 14:03:23;;;;;;;76.65;32.03;;;;;;;6.06;59.52;99192.94;4397221;32;20166;-88
2022/12/15 14:05:53;;;;;;;69.97;30.77;;;;;;;5.83;59.51;99202.00;4397357;32;20132;-88
2022/12/15 14:08:19;;;;;;;79.37;30.33;;;;;;;5.85;59.50;99201.97;4410489;32;20098;-88
2022/12/15 14:10:57;;;;;;;70.47;29.48;;;;;;;5.77;59.50;99196.13;4385337;32;20095;-88